AEE317 LFKB-LGTS
Flight info
| Callsign | AEE317 |
|---|---|
| Flight time | 1h 34m |
| Altitude | 19000 |
| Route | MOULE L146 ELB DCT MEDAL DCT AMSOR DCT PINDO UM603 EDASI |
| Aircraft | B737/M-SDE2E3FGHIRWXY/LB1 |
Departure
| Time | 2026-04-14 09:09 |
|---|---|
| Airport | Bastia-Poretta International airport (LFKB) |
Arrival
| Time | 2026-04-14 10:43 |
|---|---|
| Airport | Thessaloniki Macedonia International Airport (LGTS) |
| Time | Latitude | Longitude | Altitude | Speed | Heading |
|---|---|---|---|---|---|
| 2026-04-14 08:45 | 42.54746 | 9.48198 | 36 ft | 0 kts | 282° |
| 2026-04-14 09:03 | 42.54747 | 9.48196 | 36 ft | 2 kts | 290° |
| 2026-04-14 09:03 | 42.54762 | 9.48195 | 36 ft | 3 kts | 31° |
| 2026-04-14 09:04 | 42.54755 | 9.48231 | 36 ft | 6 kts | 129° |
| 2026-04-14 09:04 | 42.54733 | 9.48296 | 36 ft | 8 kts | 109° |
| 2026-04-14 09:04 | 42.54680 | 9.48340 | 36 ft | 11 kts | 162° |
| 2026-04-14 09:04 | 42.54598 | 9.48375 | 34 ft | 13 kts | 162° |
| 2026-04-14 09:05 | 42.54513 | 9.48410 | 35 ft | 13 kts | 163° |
| 2026-04-14 09:05 | 42.54428 | 9.48408 | 36 ft | 12 kts | 181° |
| 2026-04-14 09:05 | 42.54352 | 9.48434 | 36 ft | 11 kts | 162° |
| 2026-04-14 09:05 | 42.54282 | 9.48463 | 36 ft | 10 kts | 163° |
| 2026-04-14 09:06 | 42.54217 | 9.48487 | 36 ft | 9 kts | 164° |
| 2026-04-14 09:06 | 42.54164 | 9.48528 | 36 ft | 8 kts | 135° |
| 2026-04-14 09:06 | 42.54135 | 9.48594 | 35 ft | 8 kts | 107° |
| 2026-04-14 09:06 | 42.54133 | 9.48666 | 36 ft | 8 kts | 79° |
| 2026-04-14 09:07 | 42.54141 | 9.48704 | 36 ft | 0 kts | 68° |
| 2026-04-14 09:07 | 42.54142 | 9.48706 | 36 ft | 2 kts | 68° |
| 2026-04-14 09:07 | 42.54153 | 9.48734 | 35 ft | 5 kts | 56° |
| 2026-04-14 09:07 | 42.54186 | 9.48775 | 35 ft | 8 kts | 35° |
| 2026-04-14 09:08 | 42.54234 | 9.48800 | 34 ft | 7 kts | 358° |
| 2026-04-14 09:08 | 42.54247 | 9.48797 | 36 ft | 0 kts | 346° |
| 2026-04-14 09:08 | 42.54347 | 9.48755 | 36 ft | 48 kts | 342° |
| 2026-04-14 09:08 | 42.54918 | 9.48516 | 37 ft | 120 kts | 342° |
| 2026-04-14 09:09 | 42.55909 | 9.48123 | 118 ft | 170 kts | 344° |
| 2026-04-14 09:09 | 42.57082 | 9.47656 | 825 ft | 177 kts | 346° |
| 2026-04-14 09:09 | 42.58291 | 9.47618 | 1705 ft | 180 kts | 14° |
| 2026-04-14 09:09 | 42.59373 | 9.48523 | 2327 ft | 197 kts | 49° |
| 2026-04-14 09:10 | 42.60100 | 9.50234 | 2623 ft | 222 kts | 73° |
| 2026-04-14 09:10 | 42.60188 | 9.52454 | 2928 ft | 251 kts | 95° |
| 2026-04-14 09:10 | 42.60081 | 9.54868 | 3716 ft | 259 kts | 91° |
| 2026-04-14 09:10 | 42.60102 | 9.57300 | 4611 ft | 263 kts | 87° |
| 2026-04-14 09:11 | 42.60241 | 9.59797 | 5522 ft | 267 kts | 85° |
| 2026-04-14 09:11 | 42.60464 | 9.62320 | 6420 ft | 273 kts | 83° |
| 2026-04-14 09:11 | 42.60751 | 9.64894 | 7356 ft | 277 kts | 82° |
| 2026-04-14 09:11 | 42.61080 | 9.67487 | 8351 ft | 281 kts | 81° |
| 2026-04-14 09:12 | 42.61432 | 9.70113 | 9361 ft | 284 kts | 81° |
| 2026-04-14 09:12 | 42.61793 | 9.72771 | 10297 ft | 290 kts | 81° |
| 2026-04-14 09:12 | 42.62176 | 9.75548 | 10896 ft | 309 kts | 80° |
| 2026-04-14 09:12 | 42.62665 | 9.78506 | 11367 ft | 329 kts | 78° |
| 2026-04-14 09:13 | 42.63207 | 9.81585 | 12099 ft | 339 kts | 78° |
| 2026-04-14 09:13 | 42.63754 | 9.84713 | 13049 ft | 342 kts | 78° |
| 2026-04-14 09:13 | 42.64301 | 9.87881 | 13973 ft | 346 kts | 78° |
| 2026-04-14 09:13 | 42.64855 | 9.91092 | 14868 ft | 352 kts | 78° |
| 2026-04-14 09:14 | 42.65416 | 9.94353 | 15744 ft | 357 kts | 78° |
| 2026-04-14 09:14 | 42.65986 | 9.97668 | 16588 ft | 363 kts | 78° |
| 2026-04-14 09:14 | 42.66564 | 10.01039 | 17426 ft | 369 kts | 78° |
| 2026-04-14 09:14 | 42.66951 | 10.03296 | 17973 ft | 372 kts | 78° |
| 2026-04-14 09:15 | 42.67542 | 10.06752 | 18784 ft | 378 kts | 78° |
| 2026-04-14 09:15 | 42.68139 | 10.10248 | 19585 ft | 383 kts | 78° |
| 2026-04-14 09:15 | 42.68742 | 10.13789 | 20373 ft | 387 kts | 78° |
| 2026-04-14 09:15 | 42.69350 | 10.17370 | 21151 ft | 390 kts | 78° |
| 2026-04-14 09:16 | 42.69962 | 10.20977 | 21903 ft | 394 kts | 78° |
| 2026-04-14 09:16 | 42.70579 | 10.24620 | 22623 ft | 397 kts | 79° |
| 2026-04-14 09:16 | 42.71201 | 10.28301 | 23316 ft | 401 kts | 79° |
| 2026-04-14 09:16 | 42.71827 | 10.32014 | 23981 ft | 405 kts | 79° |
| 2026-04-14 09:17 | 42.72325 | 10.35794 | 24599 ft | 407 kts | 90° |
| 2026-04-14 09:17 | 42.71954 | 10.39585 | 25195 ft | 406 kts | 109° |
| 2026-04-14 09:17 | 42.70756 | 10.43046 | 25795 ft | 407 kts | 126° |
| 2026-04-14 09:17 | 42.68941 | 10.46002 | 26395 ft | 408 kts | 133° |
| 2026-04-14 09:18 | 42.67001 | 10.48834 | 26979 ft | 411 kts | 134° |
| 2026-04-14 09:18 | 42.65021 | 10.51650 | 27552 ft | 413 kts | 134° |
| 2026-04-14 09:18 | 42.63023 | 10.54487 | 28073 ft | 416 kts | 134° |
| 2026-04-14 09:18 | 42.61020 | 10.57352 | 28552 ft | 420 kts | 134° |
| 2026-04-14 09:19 | 42.59009 | 10.60249 | 29038 ft | 423 kts | 134° |
| 2026-04-14 09:19 | 42.57021 | 10.63128 | 29503 ft | 426 kts | 134° |
| 2026-04-14 09:19 | 42.54997 | 10.66070 | 29976 ft | 428 kts | 134° |
| 2026-04-14 09:19 | 42.52959 | 10.69034 | 30421 ft | 430 kts | 134° |
| 2026-04-14 09:20 | 42.50912 | 10.72012 | 30821 ft | 433 kts | 134° |
| 2026-04-14 09:20 | 42.48851 | 10.75009 | 31146 ft | 437 kts | 134° |
| 2026-04-14 09:20 | 42.46771 | 10.78029 | 31514 ft | 439 kts | 134° |
| 2026-04-14 09:20 | 42.44682 | 10.81060 | 31867 ft | 441 kts | 134° |
| 2026-04-14 09:21 | 42.42583 | 10.84102 | 32200 ft | 443 kts | 134° |
| 2026-04-14 09:21 | 42.40474 | 10.87155 | 32520 ft | 445 kts | 134° |
| 2026-04-14 09:21 | 42.38347 | 10.90231 | 32797 ft | 448 kts | 135° |
| 2026-04-14 09:21 | 42.36213 | 10.93313 | 33090 ft | 449 kts | 135° |
| 2026-04-14 09:22 | 42.34081 | 10.96389 | 33452 ft | 448 kts | 135° |
| 2026-04-14 09:22 | 42.31949 | 10.99461 | 33831 ft | 447 kts | 135° |
| 2026-04-14 09:22 | 42.29828 | 11.02516 | 34197 ft | 446 kts | 135° |
| 2026-04-14 09:22 | 42.27706 | 11.05567 | 34536 ft | 445 kts | 135° |
| 2026-04-14 09:23 | 42.25581 | 11.08620 | 34816 ft | 446 kts | 135° |
| 2026-04-14 09:23 | 42.23455 | 11.11672 | 35118 ft | 447 kts | 135° |
| 2026-04-14 09:23 | 42.21323 | 11.14727 | 35385 ft | 447 kts | 135° |
| 2026-04-14 09:23 | 42.19187 | 11.17784 | 35609 ft | 449 kts | 135° |
| 2026-04-14 09:24 | 42.17044 | 11.20850 | 35848 ft | 450 kts | 135° |
| 2026-04-14 09:24 | 42.14896 | 11.23921 | 36159 ft | 449 kts | 135° |
| 2026-04-14 09:24 | 42.12758 | 11.26975 | 36453 ft | 448 kts | 135° |
| 2026-04-14 09:24 | 42.10619 | 11.30027 | 36691 ft | 449 kts | 135° |
| 2026-04-14 09:25 | 42.08484 | 11.33068 | 37104 ft | 444 kts | 135° |
| 2026-04-14 09:25 | 42.06521 | 11.36254 | 37530 ft | 441 kts | 127° |
| 2026-04-14 09:25 | 42.04931 | 11.39788 | 37780 ft | 444 kts | 119° |
| 2026-04-14 09:25 | 42.03731 | 11.43635 | 37925 ft | 449 kts | 111° |
| 2026-04-14 09:26 | 42.02761 | 11.47643 | 38082 ft | 451 kts | 110° |
| 2026-04-14 09:26 | 42.01823 | 11.51681 | 38253 ft | 452 kts | 110° |
| 2026-04-14 09:26 | 42.00894 | 11.55714 | 38457 ft | 452 kts | 110° |
| 2026-04-14 09:26 | 41.99957 | 11.59749 | 38678 ft | 452 kts | 110° |
| 2026-04-14 09:27 | 41.99009 | 11.63780 | 38860 ft | 453 kts | 110° |
| 2026-04-14 09:27 | 41.98046 | 11.67829 | 38860 ft | 456 kts | 110° |
| 2026-04-14 09:27 | 41.96117 | 11.75844 | 38874 ft | 452 kts | 111° |
| 2026-04-14 09:28 | 41.94178 | 11.83843 | 38880 ft | 449 kts | 111° |
| 2026-04-14 09:28 | 41.92242 | 11.91800 | 38877 ft | 447 kts | 111° |
| 2026-04-14 09:29 | 41.90306 | 11.99732 | 38880 ft | 446 kts | 111° |
| 2026-04-14 09:29 | 41.88372 | 12.07624 | 38880 ft | 447 kts | 111° |
| 2026-04-14 09:30 | 41.86418 | 12.15571 | 38891 ft | 448 kts | 111° |
| 2026-04-14 09:30 | 41.84458 | 12.23520 | 38891 ft | 449 kts | 111° |
| 2026-04-14 09:31 | 41.82490 | 12.31471 | 38891 ft | 451 kts | 111° |
| 2026-04-14 09:31 | 41.80505 | 12.39469 | 38890 ft | 453 kts | 111° |
| 2026-04-14 09:32 | 41.78524 | 12.47421 | 38892 ft | 454 kts | 111° |
| 2026-04-14 09:33 | 41.75514 | 12.59456 | 38892 ft | 455 kts | 111° |
| 2026-04-14 09:33 | 41.73493 | 12.67503 | 38890 ft | 455 kts | 111° |
| 2026-04-14 09:34 | 41.71466 | 12.75537 | 38893 ft | 456 kts | 111° |
| 2026-04-14 09:34 | 41.69434 | 12.83575 | 38900 ft | 456 kts | 111° |
| 2026-04-14 09:35 | 41.67396 | 12.91611 | 38903 ft | 456 kts | 112° |
| 2026-04-14 09:35 | 41.65351 | 12.99640 | 38900 ft | 456 kts | 112° |
| 2026-04-14 09:36 | 41.63304 | 13.07652 | 38907 ft | 456 kts | 112° |
| 2026-04-14 09:36 | 41.61243 | 13.15687 | 38897 ft | 457 kts | 112° |
| 2026-04-14 09:37 | 41.59180 | 13.23707 | 38891 ft | 456 kts | 112° |
| 2026-04-14 09:37 | 41.57111 | 13.31717 | 38888 ft | 457 kts | 112° |
| 2026-04-14 09:38 | 41.55036 | 13.39734 | 38889 ft | 457 kts | 112° |
| 2026-04-14 09:38 | 41.52955 | 13.47752 | 38889 ft | 457 kts | 112° |
| 2026-04-14 09:39 | 41.50866 | 13.55763 | 38890 ft | 457 kts | 112° |
| 2026-04-14 09:39 | 41.48788 | 13.63715 | 38891 ft | 457 kts | 112° |
| 2026-04-14 09:40 | 41.46687 | 13.71720 | 38889 ft | 457 kts | 112° |
| 2026-04-14 09:40 | 41.44581 | 13.79714 | 38898 ft | 457 kts | 113° |
| 2026-04-14 09:41 | 41.42470 | 13.87706 | 38899 ft | 457 kts | 113° |
| 2026-04-14 09:41 | 41.40351 | 13.95700 | 38893 ft | 457 kts | 113° |
| 2026-04-14 09:42 | 41.38231 | 14.03683 | 38914 ft | 457 kts | 113° |
| 2026-04-14 09:42 | 41.36100 | 14.11671 | 38904 ft | 459 kts | 113° |
| 2026-04-14 09:43 | 41.33975 | 14.19613 | 38926 ft | 458 kts | 113° |
| 2026-04-14 09:43 | 41.31830 | 14.27601 | 38913 ft | 459 kts | 113° |
| 2026-04-14 09:44 | 41.29677 | 14.35596 | 38917 ft | 460 kts | 113° |
| 2026-04-14 09:44 | 41.27516 | 14.43600 | 38914 ft | 460 kts | 113° |
| 2026-04-14 09:45 | 41.25346 | 14.51610 | 38939 ft | 461 kts | 113° |
| 2026-04-14 09:45 | 41.23165 | 14.59628 | 38941 ft | 461 kts | 113° |
| 2026-04-14 09:46 | 41.20977 | 14.67648 | 38945 ft | 462 kts | 113° |
| 2026-04-14 09:46 | 41.18782 | 14.75675 | 38947 ft | 463 kts | 113° |
| 2026-04-14 09:47 | 41.16578 | 14.83705 | 38948 ft | 463 kts | 113° |
| 2026-04-14 09:47 | 41.15125 | 14.92007 | 38964 ft | 468 kts | 99° |
| 2026-04-14 09:48 | 41.14434 | 15.00618 | 38952 ft | 470 kts | 98° |
| 2026-04-14 09:48 | 41.13769 | 15.09250 | 38951 ft | 470 kts | 99° |
| 2026-04-14 09:49 | 41.13056 | 15.17873 | 38960 ft | 470 kts | 99° |
| 2026-04-14 09:49 | 41.12311 | 15.26500 | 38961 ft | 470 kts | 99° |
| 2026-04-14 09:50 | 41.11557 | 15.35097 | 38962 ft | 469 kts | 99° |
| 2026-04-14 09:50 | 41.10796 | 15.43691 | 38961 ft | 470 kts | 99° |
| 2026-04-14 09:51 | 41.10027 | 15.52289 | 38956 ft | 470 kts | 99° |
| 2026-04-14 09:51 | 41.09252 | 15.60903 | 38940 ft | 470 kts | 99° |
| 2026-04-14 09:52 | 41.08471 | 15.69509 | 38936 ft | 470 kts | 99° |
| 2026-04-14 09:52 | 41.07684 | 15.78127 | 38936 ft | 470 kts | 99° |
| 2026-04-14 09:53 | 41.06890 | 15.86729 | 38931 ft | 470 kts | 99° |
| 2026-04-14 09:53 | 41.06088 | 15.95329 | 38938 ft | 470 kts | 99° |
| 2026-04-14 09:54 | 41.05282 | 16.03929 | 38932 ft | 471 kts | 99° |
| 2026-04-14 09:54 | 41.04472 | 16.12491 | 38935 ft | 471 kts | 99° |
| 2026-04-14 09:55 | 41.03650 | 16.21114 | 38937 ft | 472 kts | 99° |
| 2026-04-14 09:55 | 41.02821 | 16.29747 | 38928 ft | 473 kts | 100° |
| 2026-04-14 09:56 | 41.01984 | 16.38380 | 38924 ft | 473 kts | 100° |
| 2026-04-14 09:56 | 41.01140 | 16.47024 | 38930 ft | 474 kts | 100° |
| 2026-04-14 09:57 | 41.00287 | 16.55682 | 38923 ft | 474 kts | 100° |
| 2026-04-14 09:57 | 40.99429 | 16.64335 | 38926 ft | 474 kts | 100° |
| 2026-04-14 09:58 | 40.98564 | 16.72984 | 38931 ft | 474 kts | 100° |
| 2026-04-14 09:58 | 40.97693 | 16.81648 | 38923 ft | 475 kts | 100° |
| 2026-04-14 09:59 | 40.96813 | 16.90315 | 38926 ft | 475 kts | 100° |
| 2026-04-14 09:59 | 40.95931 | 16.98932 | 38937 ft | 476 kts | 100° |
| 2026-04-14 10:00 | 40.95038 | 17.07597 | 38945 ft | 476 kts | 100° |
| 2026-04-14 10:00 | 40.94288 | 17.14823 | 38954 ft | 476 kts | 100° |
| 2026-04-14 10:01 | 40.93398 | 17.23336 | 38951 ft | 478 kts | 101° |
| 2026-04-14 10:01 | 40.92481 | 17.32044 | 38944 ft | 478 kts | 101° |
| 2026-04-14 10:02 | 40.91558 | 17.40752 | 38949 ft | 479 kts | 101° |
| 2026-04-14 10:02 | 40.90784 | 17.48004 | 38944 ft | 480 kts | 101° |
| 2026-04-14 10:03 | 40.89846 | 17.56739 | 38944 ft | 480 kts | 101° |
| 2026-04-14 10:03 | 40.88900 | 17.65473 | 38950 ft | 480 kts | 101° |
| 2026-04-14 10:04 | 40.87948 | 17.74203 | 38957 ft | 480 kts | 101° |
| 2026-04-14 10:04 | 40.86990 | 17.82939 | 38951 ft | 481 kts | 101° |
| 2026-04-14 10:05 | 40.86022 | 17.91686 | 38963 ft | 481 kts | 101° |
| 2026-04-14 10:05 | 40.85048 | 18.00421 | 38963 ft | 481 kts | 101° |
| 2026-04-14 10:06 | 40.84068 | 18.09165 | 38957 ft | 482 kts | 101° |
| 2026-04-14 10:06 | 40.83089 | 18.17929 | 38965 ft | 483 kts | 101° |
| 2026-04-14 10:07 | 40.82110 | 18.26708 | 38964 ft | 484 kts | 101° |
| 2026-04-14 10:07 | 40.81117 | 18.35494 | 38965 ft | 484 kts | 102° |
| 2026-04-14 10:08 | 40.80074 | 18.44298 | 38964 ft | 485 kts | 102° |
| 2026-04-14 10:08 | 40.79039 | 18.53046 | 38963 ft | 485 kts | 102° |
| 2026-04-14 10:09 | 40.78006 | 18.61843 | 38968 ft | 485 kts | 102° |
| 2026-04-14 10:09 | 40.76970 | 18.70644 | 38977 ft | 485 kts | 102° |
| 2026-04-14 10:10 | 40.75929 | 18.79442 | 38973 ft | 486 kts | 102° |
| 2026-04-14 10:10 | 40.74879 | 18.88250 | 38987 ft | 485 kts | 102° |
| 2026-04-14 10:11 | 40.73822 | 18.97045 | 38995 ft | 486 kts | 102° |
| 2026-04-14 10:11 | 40.72757 | 19.05846 | 38992 ft | 486 kts | 102° |
| 2026-04-14 10:12 | 40.71686 | 19.14654 | 38985 ft | 486 kts | 102° |
| 2026-04-14 10:12 | 40.70615 | 19.23399 | 38992 ft | 487 kts | 102° |
| 2026-04-14 10:13 | 40.69531 | 19.32203 | 38992 ft | 487 kts | 102° |
| 2026-04-14 10:13 | 40.68436 | 19.41014 | 38994 ft | 487 kts | 102° |
| 2026-04-14 10:14 | 40.67334 | 19.49834 | 38991 ft | 488 kts | 102° |
| 2026-04-14 10:14 | 40.66223 | 19.58658 | 38991 ft | 489 kts | 102° |
| 2026-04-14 10:15 | 40.65106 | 19.67488 | 38994 ft | 489 kts | 102° |
| 2026-04-14 10:15 | 40.63981 | 19.76330 | 38993 ft | 490 kts | 103° |
| 2026-04-14 10:16 | 40.62848 | 19.85174 | 39005 ft | 490 kts | 103° |
| 2026-04-14 10:16 | 40.61708 | 19.94020 | 39023 ft | 490 kts | 103° |
| 2026-04-14 10:17 | 40.60563 | 20.02841 | 39040 ft | 489 kts | 103° |
| 2026-04-14 10:17 | 40.59411 | 20.11662 | 39050 ft | 490 kts | 103° |
| 2026-04-14 10:18 | 40.57664 | 20.24932 | 39061 ft | 492 kts | 103° |
| 2026-04-14 10:18 | 40.56490 | 20.33791 | 39073 ft | 491 kts | 103° |
| 2026-04-14 10:19 | 40.55316 | 20.42602 | 39070 ft | 493 kts | 103° |
| 2026-04-14 10:19 | 40.54127 | 20.51465 | 39079 ft | 493 kts | 103° |
| 2026-04-14 10:20 | 40.52927 | 20.60344 | 39069 ft | 493 kts | 103° |
| 2026-04-14 10:20 | 40.51727 | 20.69197 | 39066 ft | 492 kts | 104° |
| 2026-04-14 10:21 | 40.50518 | 20.78044 | 39071 ft | 492 kts | 104° |
| 2026-04-14 10:21 | 40.49303 | 20.86896 | 39083 ft | 491 kts | 104° |
| 2026-04-14 10:22 | 40.48089 | 20.95715 | 39134 ft | 490 kts | 103° |
| 2026-04-14 10:22 | 40.47177 | 21.04620 | 38751 ft | 497 kts | 100° |
| 2026-04-14 10:23 | 40.46790 | 21.09147 | 38149 ft | 497 kts | 100° |
| 2026-04-14 10:23 | 40.46407 | 21.13584 | 37498 ft | 495 kts | 101° |
| 2026-04-14 10:23 | 40.46000 | 21.18069 | 36810 ft | 494 kts | 101° |
| 2026-04-14 10:23 | 40.45579 | 21.22530 | 36108 ft | 492 kts | 102° |
| 2026-04-14 10:24 | 40.45161 | 21.26992 | 35313 ft | 494 kts | 101° |
| 2026-04-14 10:24 | 40.44969 | 21.31544 | 34270 ft | 505 kts | 96° |
| 2026-04-14 10:24 | 40.44986 | 21.36182 | 33345 ft | 511 kts | 94° |
| 2026-04-14 10:24 | 40.45079 | 21.40878 | 32346 ft | 516 kts | 94° |
| 2026-04-14 10:25 | 40.45188 | 21.45610 | 31375 ft | 520 kts | 94° |
| 2026-04-14 10:25 | 40.45286 | 21.50369 | 30291 ft | 524 kts | 94° |
| 2026-04-14 10:25 | 40.45362 | 21.55170 | 29155 ft | 528 kts | 95° |
| 2026-04-14 10:25 | 40.45418 | 21.59997 | 27900 ft | 531 kts | 95° |
| 2026-04-14 10:26 | 40.45461 | 21.64857 | 26567 ft | 533 kts | 94° |
| 2026-04-14 10:26 | 40.45496 | 21.69720 | 25452 ft | 530 kts | 94° |
| 2026-04-14 10:26 | 40.45530 | 21.74533 | 24439 ft | 523 kts | 93° |
| 2026-04-14 10:26 | 40.45562 | 21.79253 | 23552 ft | 511 kts | 92° |
| 2026-04-14 10:27 | 40.45591 | 21.83894 | 22615 ft | 503 kts | 92° |
| 2026-04-14 10:27 | 40.45617 | 21.88441 | 21575 ft | 496 kts | 92° |
| 2026-04-14 10:27 | 40.45642 | 21.92919 | 20803 ft | 483 kts | 92° |
| 2026-04-14 10:27 | 40.45665 | 21.97323 | 19741 ft | 479 kts | 92° |
| 2026-04-14 10:28 | 40.45686 | 22.01644 | 18868 ft | 469 kts | 92° |
| 2026-04-14 10:28 | 40.45711 | 22.05883 | 17879 ft | 455 kts | 91° |
| 2026-04-14 10:28 | 40.45731 | 22.09960 | 16801 ft | 439 kts | 92° |
| 2026-04-14 10:28 | 40.45741 | 22.13956 | 15902 ft | 434 kts | 92° |
| 2026-04-14 10:29 | 40.45749 | 22.17891 | 15006 ft | 430 kts | 92° |
| 2026-04-14 10:29 | 40.45758 | 22.21802 | 14112 ft | 426 kts | 92° |
| 2026-04-14 10:29 | 40.45768 | 22.25623 | 13241 ft | 422 kts | 92° |
| 2026-04-14 10:29 | 40.45778 | 22.29461 | 12349 ft | 418 kts | 92° |
| 2026-04-14 10:30 | 40.45787 | 22.33256 | 11420 ft | 416 kts | 92° |
| 2026-04-14 10:30 | 40.45795 | 22.37007 | 11033 ft | 398 kts | 92° |
| 2026-04-14 10:30 | 40.45763 | 22.40554 | 10801 ft | 377 kts | 97° |
| 2026-04-14 10:30 | 40.45309 | 22.43833 | 10636 ft | 354 kts | 110° |
| 2026-04-14 10:31 | 40.44448 | 22.46742 | 10530 ft | 333 kts | 118° |
| 2026-04-14 10:31 | 40.43478 | 22.49419 | 10388 ft | 317 kts | 119° |
| 2026-04-14 10:31 | 40.42530 | 22.51987 | 10114 ft | 308 kts | 120° |
| 2026-04-14 10:31 | 40.41614 | 22.54467 | 9912 ft | 297 kts | 119° |
| 2026-04-14 10:32 | 40.40739 | 22.56846 | 9637 ft | 289 kts | 119° |
| 2026-04-14 10:32 | 40.39861 | 22.59234 | 9217 ft | 289 kts | 119° |
| 2026-04-14 10:32 | 40.38999 | 22.61583 | 8798 ft | 287 kts | 118° |
| 2026-04-14 10:32 | 40.38142 | 22.63935 | 8428 ft | 284 kts | 118° |
| 2026-04-14 10:33 | 40.37295 | 22.66261 | 8065 ft | 280 kts | 118° |
| 2026-04-14 10:33 | 40.36461 | 22.68543 | 7719 ft | 276 kts | 118° |
| 2026-04-14 10:33 | 40.35636 | 22.70804 | 7369 ft | 273 kts | 118° |
| 2026-04-14 10:33 | 40.34824 | 22.73032 | 7020 ft | 270 kts | 118° |
| 2026-04-14 10:34 | 40.33219 | 22.77420 | 6337 ft | 264 kts | 118° |
| 2026-04-14 10:34 | 40.32428 | 22.79581 | 5994 ft | 261 kts | 118° |
| 2026-04-14 10:34 | 40.31661 | 22.81679 | 5883 ft | 250 kts | 118° |
| 2026-04-14 10:35 | 40.30924 | 22.83693 | 5751 ft | 239 kts | 118° |
| 2026-04-14 10:35 | 40.30222 | 22.85611 | 5642 ft | 229 kts | 118° |
| 2026-04-14 10:35 | 40.29550 | 22.87447 | 5543 ft | 219 kts | 118° |
| 2026-04-14 10:35 | 40.28903 | 22.89211 | 5445 ft | 209 kts | 118° |
| 2026-04-14 10:36 | 40.28284 | 22.90898 | 5307 ft | 203 kts | 118° |
| 2026-04-14 10:36 | 40.27680 | 22.92542 | 5134 ft | 198 kts | 118° |
| 2026-04-14 10:36 | 40.27372 | 22.94253 | 4916 ft | 195 kts | 85° |
| 2026-04-14 10:36 | 40.27666 | 22.95954 | 4782 ft | 190 kts | 79° |
| 2026-04-14 10:37 | 40.27972 | 22.97621 | 4610 ft | 188 kts | 79° |
| 2026-04-14 10:37 | 40.28278 | 22.99289 | 4460 ft | 190 kts | 79° |
| 2026-04-14 10:37 | 40.28591 | 23.00985 | 4283 ft | 193 kts | 79° |
| 2026-04-14 10:37 | 40.28979 | 23.02629 | 4078 ft | 193 kts | 62° |
| 2026-04-14 10:38 | 40.30015 | 23.03631 | 3965 ft | 188 kts | 11° |
| 2026-04-14 10:38 | 40.31286 | 23.03530 | 3920 ft | 179 kts | 352° |
| 2026-04-14 10:38 | 40.32496 | 23.03236 | 3808 ft | 175 kts | 349° |
| 2026-04-14 10:38 | 40.33688 | 23.02894 | 3739 ft | 176 kts | 348° |
| 2026-04-14 10:39 | 40.34890 | 23.02526 | 3645 ft | 178 kts | 347° |
| 2026-04-14 10:39 | 40.36099 | 23.02146 | 3568 ft | 179 kts | 347° |
| 2026-04-14 10:39 | 40.37312 | 23.01764 | 3422 ft | 182 kts | 347° |
| 2026-04-14 10:39 | 40.38518 | 23.01381 | 3194 ft | 175 kts | 347° |
| 2026-04-14 10:40 | 40.39691 | 23.01009 | 2901 ft | 172 kts | 348° |
| 2026-04-14 10:40 | 40.40848 | 23.00641 | 2627 ft | 172 kts | 347° |
| 2026-04-14 10:40 | 40.42008 | 23.00269 | 2335 ft | 169 kts | 346° |
| 2026-04-14 10:40 | 40.43101 | 22.99921 | 2057 ft | 156 kts | 345° |
| 2026-04-14 10:41 | 40.44109 | 22.99600 | 1797 ft | 144 kts | 345° |
| 2026-04-14 10:41 | 40.45050 | 22.99302 | 1570 ft | 136 kts | 344° |
| 2026-04-14 10:41 | 40.45966 | 22.99010 | 1355 ft | 135 kts | 344° |
| 2026-04-14 10:41 | 40.46884 | 22.98716 | 1125 ft | 136 kts | 344° |
| 2026-04-14 10:42 | 40.47799 | 22.98425 | 885 ft | 134 kts | 343° |
| 2026-04-14 10:42 | 40.48702 | 22.98137 | 680 ft | 134 kts | 344° |
| 2026-04-14 10:42 | 40.49609 | 22.97835 | 419 ft | 135 kts | 346° |
| 2026-04-14 10:42 | 40.50517 | 22.97560 | 179 ft | 132 kts | 343° |
| 2026-04-14 10:43 | 40.51398 | 22.97278 | 32 ft | 125 kts | 344° |
| 2026-04-14 10:43 | 40.52050 | 22.97072 | 28 ft | 66 kts | 347° |
| 2026-04-14 10:43 | 40.52310 | 22.96990 | 27 ft | 24 kts | 346° |
| 2026-04-14 10:43 | 40.52456 | 22.96943 | 27 ft | 20 kts | 346° |
| 2026-04-14 10:44 | 40.52587 | 22.96902 | 28 ft | 19 kts | 347° |
| 2026-04-14 10:44 | 40.52674 | 22.96941 | 29 ft | 11 kts | 64° |
| 2026-04-14 10:44 | 40.52687 | 22.97018 | 28 ft | 7 kts | 99° |
| 2026-04-14 10:44 | 40.52676 | 22.97044 | 28 ft | 0 kts | 133° |
| 2026-04-14 10:45 | 40.52662 | 22.97057 | 28 ft | 8 kts | 149° |
| 2026-04-14 10:45 | 40.52586 | 22.97084 | 28 ft | 15 kts | 165° |
| 2026-04-14 10:45 | 40.52466 | 22.97121 | 27 ft | 21 kts | 167° |
| 2026-04-14 10:45 | 40.52383 | 22.97187 | 27 ft | 13 kts | 105° |
| 2026-04-14 10:46 | 40.52397 | 22.97295 | 27 ft | 10 kts | 76° |
| 2026-04-14 10:46 | 40.52394 | 22.97345 | 27 ft | 2 kts | 105° |
| 2026-04-14 10:46 | 40.52397 | 22.97377 | 27 ft | 6 kts | 65° |
| 2026-04-14 10:46 | 40.52421 | 22.97413 | 27 ft | 3 kts | 45° |
| 2026-04-14 10:47 | 40.52431 | 22.97426 | 27 ft | 0 kts | 44° |
| 2026-04-14 10:47 | 40.52433 | 22.97429 | 27 ft | 0 kts | 44° |